createdAt,value
2022-10-11T00:00:11.897Z,5.03
2022-10-11T00:05:16.914Z,4.30
2022-10-11T00:10:20.949Z,3.50
2022-10-11T00:15:25.055Z,3.83
2022-10-11T00:20:30.161Z,4.00
2022-10-11T00:25:33.939Z,4.13
2022-10-11T00:30:37.409Z,5.13
2022-10-11T00:35:43.563Z,6.67
2022-10-11T00:40:47.208Z,6.43
2022-10-11T00:46:32.016Z,4.17
2022-10-11T00:51:42.802Z,3.07
2022-10-11T00:56:49.607Z,3.30
2022-10-11T01:01:53.593Z,3.40
2022-10-11T01:06:59.916Z,3.77
2022-10-11T01:12:06.421Z,3.20
2022-10-11T01:17:18.877Z,3.70
2022-10-11T01:22:50.281Z,5.47
2022-10-11T01:28:14.527Z,4.13
2022-10-11T01:33:28.991Z,3.80
2022-10-11T01:38:39.517Z,4.03
2022-10-11T01:43:44.240Z,3.60
2022-10-11T01:48:54.330Z,3.73
2022-10-11T01:54:15.146Z,4.97
2022-10-11T01:59:29.698Z,5.93
2022-10-11T02:04:42.478Z,5.13
2022-10-11T02:09:50.547Z,5.40
2022-10-11T02:14:57.352Z,5.00
2022-10-11T02:20:07.454Z,4.90
2022-10-11T02:25:14.582Z,4.33
2022-10-11T02:30:18.816Z,4.37
2022-10-11T02:35:26.101Z,5.30
2022-10-11T02:40:32.433Z,4.93
2022-10-11T02:45:39.415Z,4.60
2022-10-11T02:50:44.719Z,4.70
2022-10-11T02:55:49.664Z,4.53
2022-10-11T03:00:53.417Z,5.43
2022-10-11T03:06:02.109Z,5.17
2022-10-11T03:11:05.874Z,4.83
2022-10-11T03:16:09.721Z,5.10
2022-10-11T03:21:14.921Z,5.33
2022-10-11T03:26:18.774Z,5.10
2022-10-11T03:31:23.912Z,5.37
2022-10-11T03:36:28.931Z,5.13
2022-10-11T03:41:32.787Z,5.43
2022-10-11T03:46:36.393Z,5.50
2022-10-11T03:51:41.391Z,4.73
2022-10-11T03:56:44.830Z,4.70
2022-10-11T04:01:48.392Z,5.20
2022-10-11T04:06:53.758Z,5.50
2022-10-11T04:11:57.197Z,5.50
2022-10-11T04:17:00.805Z,4.87
2022-10-11T04:22:06.077Z,5.10
2022-10-11T04:27:09.694Z,5.77
2022-10-11T04:32:13.180Z,5.13
2022-10-11T04:37:18.366Z,5.40
2022-10-11T04:42:21.842Z,4.90
2022-10-11T04:47:25.466Z,5.67
2022-10-11T04:52:30.467Z,6.10
2022-10-11T04:57:33.865Z,6.23
2022-10-11T05:02:37.382Z,5.43
2022-10-11T05:07:42.265Z,5.57
2022-10-11T05:12:45.721Z,5.33
2022-10-11T05:17:49.101Z,6.03
2022-10-11T05:22:53.916Z,5.77
2022-10-11T05:27:57.566Z,5.10
2022-10-11T05:33:01.381Z,5.33
2022-10-11T05:38:06.288Z,5.43
2022-10-11T05:43:09.880Z,6.17
2022-10-11T05:48:14.063Z,6.87
2022-10-11T05:53:18.909Z,6.00
2022-10-11T05:58:22.493Z,5.43
2022-10-11T06:03:25.848Z,5.97
2022-10-11T06:08:31.825Z,5.57
2022-10-11T06:13:36.045Z,5.13
2022-10-11T06:18:39.875Z,5.33
2022-10-11T06:23:44.797Z,5.07
2022-10-11T06:28:48.404Z,5.03
2022-10-11T06:33:51.900Z,5.50
2022-10-11T06:38:56.989Z,5.43
2022-10-11T06:44:00.694Z,5.10
2022-10-11T06:49:04.167Z,5.33
2022-10-11T06:54:09.213Z,5.03
2022-10-11T06:59:13.705Z,4.83
2022-10-11T07:04:17.453Z,4.67
2022-10-11T07:09:22.340Z,5.47
2022-10-11T07:14:25.894Z,5.23
2022-10-11T07:19:29.572Z,5.27
2022-10-11T07:24:34.721Z,4.93
2022-10-11T07:29:38.161Z,4.73
2022-10-11T07:34:41.691Z,5.33
2022-10-11T07:39:46.617Z,5.37
2022-10-11T07:44:50.095Z,5.70
2022-10-11T07:49:53.586Z,5.97
2022-10-11T07:54:58.563Z,5.43
2022-10-11T08:00:02.068Z,6.27
2022-10-11T08:05:05.939Z,5.53
2022-10-11T08:10:12.057Z,5.50
2022-10-11T08:15:15.573Z,4.70
2022-10-11T08:20:18.954Z,5.00
2022-10-11T08:25:23.895Z,4.80
2022-10-11T08:30:27.340Z,5.10
2022-10-11T08:35:30.784Z,4.63
2022-10-11T08:40:36.758Z,4.77
2022-10-11T08:45:45.405Z,4.90
2022-10-11T08:50:52.342Z,4.63
2022-10-11T08:55:57.432Z,4.10
2022-10-11T09:01:02.738Z,4.50
2022-10-11T09:06:16.330Z,4.57
2022-10-11T09:11:31.642Z,3.90
2022-10-11T09:16:49.052Z,3.90
2022-10-11T09:22:01.482Z,4.23
2022-10-11T09:27:33.241Z,4.03
2022-10-11T09:32:49.145Z,3.67
2022-10-11T09:38:00.805Z,3.70
2022-10-11T09:43:06.889Z,3.70
2022-10-11T09:48:11.370Z,3.90
2022-10-11T09:53:14.769Z,3.80
2022-10-11T09:58:31.953Z,3.73
2022-10-11T10:03:37.014Z,3.43
2022-10-11T10:08:40.496Z,3.37
2022-10-11T10:13:50.151Z,3.63
2022-10-11T10:18:56.639Z,3.17
2022-10-11T10:24:04.389Z,3.67
2022-10-11T10:29:18.838Z,4.10
2022-10-11T10:34:27.490Z,3.67
2022-10-11T10:39:38.520Z,3.93
2022-10-11T10:44:44.368Z,4.60
2022-10-11T10:49:55.863Z,3.40
2022-10-11T10:55:04.987Z,3.70
2022-10-11T11:00:17.085Z,3.10
2022-10-11T11:05:28.397Z,3.37
2022-10-11T11:10:38.025Z,3.37
2022-10-11T11:15:49.931Z,3.30
2022-10-11T11:21:09.276Z,2.70
2022-10-11T11:26:19.535Z,2.80
2022-10-11T11:31:45.535Z,2.53
2022-10-11T11:36:51.306Z,2.17
2022-10-11T11:41:59.849Z,2.30
2022-10-11T11:47:10.757Z,2.50
2022-10-11T11:52:18.571Z,2.30
2022-10-11T11:57:34.112Z,2.17
2022-10-11T12:02:46.543Z,2.43
2022-10-11T12:07:57.017Z,2.10
2022-10-11T12:13:22.193Z,1.90
2022-10-11T12:18:28.125Z,2.13
2022-10-11T12:23:46.991Z,2.50
2022-10-11T12:29:28.752Z,2.40
2022-10-11T12:34:42.109Z,2.80
2022-10-11T12:39:52.999Z,3.30
2022-10-11T12:45:32.462Z,3.57
2022-10-11T12:50:44.641Z,3.50
2022-10-11T12:55:54.106Z,3.37
2022-10-11T13:01:21.919Z,3.27
2022-10-11T13:06:29.418Z,3.30
2022-10-11T13:11:36.403Z,2.67
2022-10-11T13:16:52.700Z,2.50
2022-10-11T13:22:00.637Z,2.83
2022-10-11T13:27:05.185Z,2.40
2022-10-11T13:39:44.716Z,1.97
2022-10-11T13:50:34.029Z,1.77
2022-10-11T13:55:56.070Z,1.80
2022-10-11T14:01:31.727Z,2.00
2022-10-11T14:07:01.130Z,2.00
2022-10-11T14:12:39.450Z,1.90
2022-10-11T14:18:04.296Z,2.00
2022-10-11T14:23:15.566Z,1.90
2022-10-11T14:34:03.346Z,2.30
2022-10-11T14:39:38.650Z,2.00
2022-10-11T14:44:58.747Z,2.50
2022-10-11T15:26:03.645Z,2.30
2022-10-11T16:11:02.467Z,2.30
2022-10-11T16:27:40.948Z,2.60
2022-10-11T16:38:21.160Z,2.60
2022-10-11T16:43:27.506Z,2.13
2022-10-11T16:54:06.734Z,2.53
2022-10-11T16:59:27.511Z,2.43
2022-10-11T17:25:51.256Z,2.80
2022-10-11T17:30:56.810Z,2.53
2022-10-11T17:36:02.398Z,2.67
2022-10-11T17:41:10.266Z,2.50
2022-10-11T17:46:19.492Z,2.40
2022-10-11T17:51:24.519Z,2.60
2022-10-11T17:57:11.454Z,3.30
2022-10-11T18:02:15.855Z,3.00
2022-10-11T18:07:20.529Z,3.13
2022-10-11T18:12:26.808Z,4.10
2022-10-11T18:17:31.450Z,3.50
2022-10-11T18:22:34.955Z,3.77
2022-10-11T18:27:40.190Z,3.77
2022-10-11T18:32:44.526Z,4.13
2022-10-11T18:37:48.374Z,3.87
2022-10-11T18:42:54.079Z,4.00
2022-10-11T18:47:58.649Z,4.03
2022-10-11T18:58:15.369Z,4.17
2022-10-11T19:03:20.732Z,4.17
2022-10-11T19:08:24.494Z,4.53
2022-10-11T19:13:30.396Z,4.07
2022-10-11T19:18:35.053Z,4.27
2022-10-11T19:23:40.984Z,4.73
2022-10-11T19:28:55.503Z,4.17
2022-10-11T19:34:00.166Z,4.50
2022-10-11T19:39:04.609Z,4.47
2022-10-11T19:44:11.495Z,4.50
2022-10-11T19:49:18.018Z,4.13
2022-10-11T19:54:22.527Z,4.40
2022-10-11T19:59:28.408Z,3.60
2022-10-11T20:09:55.619Z,4.00
2022-10-11T20:15:00.643Z,3.60
2022-10-11T20:20:04.246Z,4.37
2022-10-11T20:25:08.972Z,4.07
2022-10-11T20:30:15.003Z,3.93
2022-10-11T20:35:18.674Z,4.30
2022-10-11T20:40:23.392Z,4.07
2022-10-11T20:45:28.408Z,4.17
2022-10-11T20:50:31.840Z,4.00
2022-10-11T20:55:35.287Z,3.33
2022-10-11T21:00:42.060Z,3.40
2022-10-11T21:05:46.765Z,3.23
2022-10-11T21:10:53.040Z,3.30
2022-10-11T21:16:04.114Z,3.43
2022-10-11T21:21:09.368Z,3.30
2022-10-11T21:26:14.995Z,2.93
2022-10-11T21:31:21.588Z,3.73
2022-10-11T21:36:26.185Z,3.50
2022-10-11T21:41:30.478Z,3.27
2022-10-11T21:51:59.635Z,3.03
2022-10-11T21:57:03.177Z,3.10
2022-10-11T22:02:08.522Z,3.20
2022-10-11T22:07:14.888Z,2.87
2022-10-11T22:12:18.326Z,3.47
2022-10-11T22:17:23.280Z,3.00
2022-10-11T22:22:26.784Z,2.67
2022-10-11T22:27:30.291Z,2.80
2022-10-11T22:33:12.339Z,3.23
2022-10-11T22:38:17.189Z,3.20
2022-10-11T22:43:21.116Z,2.83
2022-10-11T22:48:24.701Z,3.23
2022-10-11T22:53:29.810Z,3.20
2022-10-11T22:58:33.414Z,3.90
2022-10-11T23:03:37.044Z,3.23
2022-10-11T23:08:42.098Z,2.90
2022-10-11T23:13:45.641Z,2.97
2022-10-11T23:18:49.216Z,3.47
2022-10-11T23:23:55.630Z,2.67
2022-10-11T23:28:59.141Z,2.60
2022-10-11T23:34:02.598Z,3.00
2022-10-11T23:39:07.752Z,3.37
2022-10-11T23:44:11.662Z,2.97
2022-10-11T23:49:15.144Z,3.00
2022-10-11T23:54:20.232Z,3.17
2022-10-11T23:59:23.943Z,3.00
